Terminal Aerodrome Forecast
Issued by NWS

Current Version | Previous Version | Text Only | Print | Product List | Glossary Off
Versions: 1 2 3 4 5 6 7 8 9 10 11 12 13 14 15 16

521
FTUS41 KPBZ 181127
TAFMGW
TAF
KMGW 181127Z 1812/1912 20006KT P6SM SKC
     FM181600 22010G20KT P6SM SCT250
     FM190000 22007KT P6SM BKN100
     FM190600 23004KT P6SM OVC025=

USA.gov is the U.S. government's official web portal to all federal, state and local government web resources and services.